createdAt,value
2022-10-26T00:00:52.996Z,5.33
2022-10-26T00:03:22.292Z,6.80
2022-10-26T00:05:50.209Z,6.23
2022-10-26T00:08:18.161Z,5.67
2022-10-26T00:10:46.085Z,7.93
2022-10-26T00:13:14.473Z,5.90
2022-10-26T00:15:43.293Z,6.57
2022-10-26T00:18:11.510Z,6.37
2022-10-26T00:20:40.773Z,4.70
2022-10-26T00:23:08.878Z,5.43
2022-10-26T00:25:36.955Z,5.80
2022-10-26T00:28:05.089Z,7.17
2022-10-26T00:30:33.195Z,5.37
2022-10-26T00:33:01.122Z,6.67
2022-10-26T00:35:44.918Z,4.20
2022-10-26T00:38:14.706Z,6.53
2022-10-26T00:40:44.324Z,4.60
2022-10-26T00:43:17.529Z,5.37
2022-10-26T00:45:46.592Z,5.40
2022-10-26T00:48:18.600Z,3.90
2022-10-26T00:50:48.545Z,5.83
2022-10-26T00:53:19.160Z,4.17
2022-10-26T00:55:50.261Z,3.67
2022-10-26T00:58:19.481Z,8.03
2022-10-26T01:00:48.076Z,4.47
2022-10-26T01:03:16.748Z,5.50
2022-10-26T01:05:46.760Z,5.33
2022-10-26T01:08:17.191Z,7.00
2022-10-26T01:10:45.326Z,3.67
2022-10-26T01:13:14.220Z,3.97
2022-10-26T01:15:52.403Z,7.43
2022-10-26T01:18:27.516Z,3.40
2022-10-26T01:21:24.728Z,7.20
2022-10-26T01:24:15.077Z,5.90
2022-10-26T01:27:06.293Z,4.60
2022-10-26T01:30:06.905Z,6.27
2022-10-26T01:32:41.636Z,5.57
2022-10-26T01:35:13.682Z,6.03
2022-10-26T01:37:48.322Z,6.30
2022-10-26T01:40:21.563Z,4.73
2022-10-26T01:43:00.460Z,4.50
2022-10-26T01:45:30.794Z,5.30
2022-10-26T01:48:01.789Z,4.83
2022-10-26T01:50:32.173Z,4.07
2022-10-26T01:53:00.308Z,4.23
2022-10-26T01:55:50.409Z,5.23
2022-10-26T01:58:48.524Z,5.20
2022-10-26T02:01:39.179Z,5.93
2022-10-26T02:04:20.114Z,4.70
2022-10-26T02:07:01.162Z,5.57
2022-10-26T02:09:38.989Z,4.40
2022-10-26T02:12:15.159Z,5.47
2022-10-26T02:14:49.369Z,4.90
2022-10-26T02:17:24.041Z,5.93
2022-10-26T02:19:57.107Z,6.07
2022-10-26T02:22:28.002Z,3.33
2022-10-26T02:24:57.600Z,4.23
2022-10-26T02:27:28.697Z,3.90
2022-10-26T02:29:58.350Z,2.70
2022-10-26T02:32:29.494Z,7.40
2022-10-26T02:35:01.289Z,4.17
2022-10-26T02:37:33.259Z,5.93
2022-10-26T02:40:04.901Z,5.00
2022-10-26T02:45:34.214Z,4.40
2022-10-26T02:48:02.233Z,3.60
2022-10-26T02:50:39.377Z,5.13
2022-10-26T02:53:16.937Z,3.00
2022-10-26T02:55:50.285Z,3.37
2022-10-26T02:58:23.237Z,5.37
2022-10-26T03:00:51.837Z,2.97
2022-10-26T03:03:20.633Z,4.63
2022-10-26T03:05:50.139Z,4.40
2022-10-26T03:08:18.444Z,4.93
2022-10-26T03:10:47.183Z,4.57
2022-10-26T03:13:15.601Z,3.50
2022-10-26T03:15:43.594Z,5.03
2022-10-26T03:18:11.554Z,5.10
2022-10-26T03:20:39.478Z,6.43
2022-10-26T03:23:08.748Z,5.67
2022-10-26T03:25:36.693Z,4.23
2022-10-26T03:28:06.103Z,3.67
2022-10-26T03:30:34.250Z,5.03
2022-10-26T03:33:02.229Z,4.70
2022-10-26T03:35:30.179Z,4.37
2022-10-26T03:37:58.136Z,3.93
2022-10-26T03:40:27.481Z,3.60
2022-10-26T03:45:33.305Z,4.83
2022-10-26T03:48:01.271Z,7.70
2022-10-26T03:50:29.228Z,4.63
2022-10-26T03:52:57.120Z,4.27
2022-10-26T03:55:25.074Z,5.60
2022-10-26T03:57:56.161Z,3.37
2022-10-26T04:00:24.117Z,3.27
2022-10-26T04:02:56.576Z,5.00
2022-10-26T04:05:25.379Z,3.23
2022-10-26T04:07:54.971Z,4.90
2022-10-26T04:10:23.032Z,4.03
2022-10-26T04:12:51.051Z,4.97
2022-10-26T04:15:21.690Z,4.33
2022-10-26T04:17:49.903Z,3.80
2022-10-26T04:20:18.388Z,2.90
2022-10-26T04:22:46.394Z,3.57
2022-10-26T04:25:14.489Z,3.53
2022-10-26T04:27:42.421Z,3.20
2022-10-26T04:30:11.288Z,4.70
2022-10-26T04:32:40.792Z,5.13
2022-10-26T04:35:12.080Z,2.30
2022-10-26T04:37:43.238Z,2.93
2022-10-26T04:40:12.001Z,3.37
2022-10-26T04:42:44.070Z,3.00
2022-10-26T04:45:13.635Z,4.40
2022-10-26T04:47:44.577Z,4.93
2022-10-26T04:50:14.021Z,4.83
2022-10-26T04:52:42.601Z,4.40
2022-10-26T04:55:10.842Z,4.33
2022-10-26T04:57:38.771Z,3.77
2022-10-26T05:00:07.421Z,2.97
2022-10-26T05:02:35.320Z,2.30
2022-10-26T05:05:06.166Z,2.30
2022-10-26T05:07:35.883Z,2.67
2022-10-26T05:10:03.969Z,6.50
2022-10-26T05:12:31.935Z,3.53
2022-10-26T05:15:00.301Z,4.20
2022-10-26T05:17:32.081Z,2.73
2022-10-26T05:20:05.687Z,4.90
2022-10-26T05:22:34.989Z,5.20
2022-10-26T05:25:02.951Z,3.87
2022-10-26T05:27:30.890Z,6.17
2022-10-26T05:30:01.319Z,5.03
2022-10-26T05:32:29.322Z,4.43
2022-10-26T05:34:57.322Z,4.37
2022-10-26T05:37:25.208Z,3.00
2022-10-26T05:39:54.537Z,4.43
2022-10-26T05:42:22.663Z,2.13
2022-10-26T05:44:50.632Z,4.50
2022-10-26T05:47:18.616Z,3.60
2022-10-26T05:49:46.577Z,4.37
2022-10-26T05:52:14.506Z,4.87
2022-10-26T05:54:42.419Z,3.43
2022-10-26T05:57:14.487Z,4.67
2022-10-26T05:59:42.883Z,4.40
2022-10-26T06:02:20.232Z,5.93
2022-10-26T06:04:48.989Z,5.90
2022-10-26T06:07:20.028Z,7.03
2022-10-26T06:09:49.010Z,2.70
2022-10-26T06:12:19.876Z,5.40
2022-10-26T06:14:48.746Z,8.53
2022-10-26T06:17:41.993Z,4.43
2022-10-26T06:20:35.126Z,2.90
2022-10-26T06:23:20.986Z,3.90
2022-10-26T06:25:59.172Z,4.27
2022-10-26T06:28:37.077Z,4.40
2022-10-26T06:31:05.345Z,5.47
2022-10-26T06:33:33.539Z,3.30
2022-10-26T06:36:15.920Z,6.47
2022-10-26T06:38:47.040Z,3.63
2022-10-26T06:41:18.919Z,3.93
2022-10-26T06:43:49.210Z,4.30
2022-10-26T06:46:35.781Z,3.23
2022-10-26T06:49:10.416Z,8.10
2022-10-26T06:51:47.071Z,5.87
2022-10-26T06:54:22.743Z,7.70
2022-10-26T06:56:52.765Z,7.13
2022-10-26T06:59:35.520Z,6.20
2022-10-26T07:02:06.361Z,5.70
2022-10-26T07:04:37.061Z,4.23
2022-10-26T07:07:05.267Z,4.30
2022-10-26T07:09:33.216Z,5.93
2022-10-26T07:12:01.622Z,3.97
2022-10-26T07:14:30.926Z,5.47
2022-10-26T07:16:58.881Z,5.70
2022-10-26T07:19:26.856Z,3.97
2022-10-26T07:21:56.651Z,5.53
2022-10-26T07:24:24.749Z,3.87
2022-10-26T07:26:54.867Z,3.80
2022-10-26T07:29:22.922Z,3.57
2022-10-26T07:34:25.604Z,5.80
2022-10-26T07:36:53.865Z,3.77
2022-10-26T07:39:21.851Z,3.73
2022-10-26T07:41:51.950Z,3.37
2022-10-26T07:44:20.141Z,5.20
2022-10-26T07:46:48.229Z,4.10
2022-10-26T07:49:19.572Z,2.87
2022-10-26T07:51:48.044Z,8.10
2022-10-26T07:54:15.992Z,6.30
2022-10-26T07:56:43.995Z,6.33
2022-10-26T07:59:13.302Z,3.90
2022-10-26T08:01:41.328Z,6.17
2022-10-26T08:04:09.368Z,4.20
2022-10-26T08:06:38.686Z,4.87
2022-10-26T08:09:06.776Z,6.73
2022-10-26T08:11:36.962Z,5.83
2022-10-26T08:14:05.109Z,12.70
2022-10-26T08:16:34.778Z,9.67
2022-10-26T08:19:02.685Z,10.07
2022-10-26T08:21:45.876Z,13.63
2022-10-26T08:24:15.246Z,26.80
2022-10-26T08:26:43.870Z,19.30
2022-10-26T08:29:11.873Z,20.77
2022-10-26T08:31:39.827Z,20.13
2022-10-26T08:34:07.877Z,23.07
2022-10-26T08:36:35.798Z,25.23
2022-10-26T08:39:03.887Z,28.43
2022-10-26T08:41:38.653Z,23.90
2022-10-26T08:44:19.723Z,20.40
2022-10-26T08:46:53.382Z,24.67
2022-10-26T08:49:26.006Z,18.80
2022-10-26T08:51:58.711Z,23.23
2022-10-26T08:54:36.261Z,26.20
2022-10-26T08:57:15.222Z,23.87
2022-10-26T08:59:48.754Z,19.93
2022-10-26T09:02:18.934Z,21.67
2022-10-26T09:04:47.449Z,26.80
2022-10-26T09:07:37.019Z,24.27
2022-10-26T09:10:15.007Z,28.03
2022-10-26T09:12:50.156Z,27.23
2022-10-26T09:15:28.045Z,30.07
2022-10-26T09:18:05.593Z,26.37
2022-10-26T09:20:55.546Z,22.97
2022-10-26T09:23:38.340Z,22.87
2022-10-26T09:26:14.297Z,22.50
2022-10-26T09:28:47.690Z,20.60
2022-10-26T09:31:18.281Z,20.17
2022-10-26T09:33:46.254Z,21.93
2022-10-26T09:36:19.858Z,20.03
2022-10-26T09:38:56.304Z,19.97
2022-10-26T09:41:31.640Z,17.77
2022-10-26T09:44:09.915Z,23.30
2022-10-26T09:46:47.960Z,19.03
2022-10-26T09:49:18.605Z,23.00
2022-10-26T09:51:46.566Z,18.93
2022-10-26T09:54:17.239Z,18.90
2022-10-26T09:56:47.372Z,16.00
2022-10-26T09:59:19.284Z,17.87
2022-10-26T10:01:47.281Z,19.27
2022-10-26T10:04:21.230Z,16.83
2022-10-26T10:06:50.752Z,23.93
2022-10-26T10:09:20.984Z,25.90
2022-10-26T10:11:56.428Z,18.33
2022-10-26T10:14:28.507Z,16.97
2022-10-26T10:16:58.160Z,21.63
2022-10-26T10:19:28.554Z,22.57
2022-10-26T10:21:59.495Z,21.47
2022-10-26T10:24:29.635Z,22.90
2022-10-26T10:27:02.782Z,19.83
2022-10-26T10:29:34.399Z,20.63
2022-10-26T10:32:04.048Z,21.87
2022-10-26T10:34:32.965Z,20.60
2022-10-26T10:37:01.822Z,23.37
2022-10-26T10:39:39.722Z,25.33
2022-10-26T10:42:17.582Z,21.80
2022-10-26T10:44:48.384Z,24.33
2022-10-26T10:47:23.527Z,24.53
2022-10-26T10:49:57.233Z,21.70
2022-10-26T10:52:28.399Z,23.27
2022-10-26T10:55:16.366Z,25.83
2022-10-26T10:57:58.232Z,20.27
2022-10-26T11:00:27.743Z,21.10
2022-10-26T11:03:19.979Z,24.60
2022-10-26T11:06:06.150Z,19.70
2022-10-26T11:08:42.197Z,22.47
2022-10-26T11:11:14.186Z,19.03
2022-10-26T11:13:49.731Z,17.13
2022-10-26T11:16:23.939Z,18.33
2022-10-26T11:18:55.237Z,17.90
2022-10-26T11:21:28.876Z,19.23
2022-10-26T11:24:11.311Z,16.37
2022-10-26T11:26:46.208Z,18.33
2022-10-26T11:29:24.533Z,18.07
2022-10-26T11:32:00.057Z,21.20
2022-10-26T11:34:35.074Z,19.47
2022-10-26T11:37:11.028Z,16.20
2022-10-26T11:39:46.028Z,17.33
2022-10-26T11:42:24.834Z,15.90
2022-10-26T11:44:56.701Z,19.60
2022-10-26T11:47:35.456Z,18.13
2022-10-26T11:50:14.735Z,18.73
2022-10-26T11:52:49.301Z,12.47
2022-10-26T11:55:19.241Z,19.93
2022-10-26T11:57:47.997Z,16.33
2022-10-26T12:00:18.579Z,15.77
2022-10-26T12:02:51.228Z,16.07
2022-10-26T12:05:22.983Z,14.17
2022-10-26T12:07:54.224Z,14.53
2022-10-26T12:10:29.077Z,12.67
2022-10-26T12:13:08.501Z,11.77
2022-10-26T12:16:02.136Z,16.00
2022-10-26T12:18:57.259Z,16.60
2022-10-26T12:21:28.829Z,12.50
2022-10-26T12:23:59.533Z,13.97
2022-10-26T12:26:51.833Z,14.07
2022-10-26T12:29:47.624Z,14.20
2022-10-26T12:32:54.737Z,14.73
2022-10-26T12:35:36.914Z,17.70
2022-10-26T12:38:52.018Z,13.77
2022-10-26T12:41:27.549Z,16.57
2022-10-26T12:46:40.559Z,15.20
2022-10-26T12:49:59.119Z,18.73
2022-10-26T12:52:48.612Z,18.07
2022-10-26T12:55:39.341Z,13.20
2022-10-26T12:58:42.484Z,12.97
2022-10-26T13:01:33.497Z,11.50
2022-10-26T13:04:26.203Z,13.70
2022-10-26T13:07:17.750Z,13.33
2022-10-26T13:09:56.097Z,13.73
2022-10-26T13:12:24.180Z,11.57
2022-10-26T13:15:02.620Z,12.07
2022-10-26T13:20:08.211Z,12.67
2022-10-26T13:22:46.820Z,14.63
2022-10-26T13:25:24.413Z,12.57
2022-10-26T13:28:07.154Z,11.67
2022-10-26T13:30:45.653Z,11.93
2022-10-26T13:33:23.834Z,12.90
2022-10-26T13:35:58.257Z,13.97
2022-10-26T13:38:32.342Z,12.00
2022-10-26T13:41:24.933Z,12.63
2022-10-26T13:46:39.617Z,15.07
2022-10-26T13:49:14.587Z,11.87
2022-10-26T13:51:45.351Z,11.33
2022-10-26T13:54:23.913Z,14.93
2022-10-26T13:57:05.027Z,11.17
2022-10-26T13:59:38.519Z,10.93
2022-10-26T14:02:19.200Z,10.33
2022-10-26T14:04:49.714Z,13.80
2022-10-26T14:07:22.809Z,10.23
2022-10-26T14:09:55.557Z,11.50
2022-10-26T14:12:26.319Z,13.20
2022-10-26T14:14:55.265Z,11.67
2022-10-26T14:17:26.672Z,11.67
2022-10-26T14:19:55.317Z,13.93
2022-10-26T14:22:27.414Z,11.77
2022-10-26T14:24:56.812Z,15.07
2022-10-26T14:27:28.590Z,12.13
2022-10-26T14:30:21.528Z,14.00
2022-10-26T14:32:44.810Z,15.33
2022-10-26T14:35:13.976Z,13.23
2022-10-26T14:37:50.685Z,15.17
2022-10-26T14:40:20.588Z,16.70
2022-10-26T14:42:54.094Z,17.80
2022-10-26T14:45:29.856Z,14.20
2022-10-26T14:48:23.734Z,12.37
2022-10-26T14:51:02.361Z,15.47
2022-10-26T14:53:37.414Z,17.60
2022-10-26T14:56:07.127Z,14.43
2022-10-26T14:58:37.638Z,12.40
2022-10-26T15:01:36.172Z,15.73
2022-10-26T15:04:06.599Z,13.90
2022-10-26T15:06:44.482Z,14.83
2022-10-26T15:09:38.921Z,15.53
2022-10-26T15:12:09.519Z,15.23
2022-10-26T15:14:43.677Z,12.47
2022-10-26T15:17:23.468Z,15.03
2022-10-26T15:19:53.660Z,12.47
2022-10-26T15:22:29.516Z,17.43
2022-10-26T15:25:03.149Z,14.13
2022-10-26T15:27:31.645Z,13.27
2022-10-26T15:30:26.171Z,13.50
2022-10-26T15:32:55.019Z,13.53
2022-10-26T15:35:31.483Z,12.43
2022-10-26T15:38:01.020Z,13.03
2022-10-26T15:40:30.760Z,12.53
2022-10-26T15:43:01.607Z,14.60
2022-10-26T15:45:34.079Z,17.40
2022-10-26T15:48:18.437Z,12.47
2022-10-26T15:50:46.361Z,13.47
2022-10-26T15:53:20.490Z,14.97
2022-10-26T15:55:48.961Z,12.00
2022-10-26T15:58:17.222Z,16.87
2022-10-26T16:00:46.739Z,13.37
2022-10-26T16:03:17.871Z,13.43
2022-10-26T16:05:46.070Z,16.53
2022-10-26T16:08:18.005Z,15.87
2022-10-26T16:10:47.501Z,16.13
2022-10-26T16:13:16.080Z,13.77
2022-10-26T16:15:44.566Z,19.03
2022-10-26T16:18:13.961Z,13.07
2022-10-26T16:20:42.590Z,14.30
2022-10-26T16:23:10.479Z,16.67
2022-10-26T16:25:43.982Z,16.67
2022-10-26T16:28:14.170Z,14.37
2022-10-26T16:30:42.181Z,13.67
2022-10-26T16:33:10.291Z,17.17
2022-10-26T16:35:39.581Z,13.23
2022-10-26T16:38:07.603Z,15.03
2022-10-26T16:40:35.574Z,15.83
2022-10-26T16:43:03.514Z,14.77
2022-10-26T16:45:31.830Z,15.33
2022-10-26T16:47:59.778Z,18.47
2022-10-26T16:50:27.725Z,17.83
2022-10-26T16:52:57.057Z,17.53
2022-10-26T16:55:25.089Z,16.70
2022-10-26T16:57:53.125Z,16.13
2022-10-26T17:00:21.221Z,16.93
2022-10-26T17:02:49.154Z,16.47
2022-10-26T17:05:17.196Z,18.13
2022-10-26T17:07:45.180Z,17.47
2022-10-26T17:10:14.500Z,17.33
2022-10-26T17:12:42.458Z,23.20
2022-10-26T17:15:12.888Z,38.20
2022-10-26T17:17:42.946Z,37.03
2022-10-26T17:20:12.258Z,33.40
2022-10-26T17:22:40.845Z,27.83
2022-10-26T17:25:09.278Z,27.23
2022-10-26T17:27:41.240Z,29.10
2022-10-26T17:30:11.976Z,28.00
2022-10-26T17:32:39.908Z,32.30
2022-10-26T17:35:08.504Z,29.33
2022-10-26T17:37:37.545Z,24.63
2022-10-26T17:40:06.369Z,23.93
2022-10-26T17:42:34.341Z,27.70
2022-10-26T17:45:03.659Z,24.37
2022-10-26T17:47:31.662Z,20.83
2022-10-26T17:50:00.139Z,22.03
2022-10-26T17:52:28.093Z,22.80
2022-10-26T17:54:58.102Z,19.87
2022-10-26T17:57:28.455Z,20.33
2022-10-26T17:59:56.438Z,21.03
2022-10-26T18:02:25.911Z,24.40
2022-10-26T18:04:53.905Z,21.07
2022-10-26T18:07:22.241Z,20.70
2022-10-26T18:09:50.231Z,22.23
2022-10-26T18:12:18.161Z,22.13
2022-10-26T18:14:46.117Z,20.67
2022-10-26T18:17:14.127Z,21.03
2022-10-26T18:19:43.406Z,20.20
2022-10-26T18:22:11.345Z,20.50
2022-10-26T18:24:39.280Z,20.37
2022-10-26T18:27:07.238Z,20.23
2022-10-26T18:29:37.497Z,19.80
2022-10-26T18:32:07.703Z,22.60
2022-10-26T18:34:35.947Z,21.87
2022-10-26T18:37:05.252Z,19.57
2022-10-26T18:39:33.185Z,20.97
2022-10-26T18:42:01.122Z,19.90
2022-10-26T18:47:17.209Z,18.73
2022-10-26T18:49:45.157Z,24.07
2022-10-26T18:52:14.518Z,24.47
2022-10-26T18:54:42.461Z,22.47
2022-10-26T18:57:10.448Z,24.23
2022-10-26T18:59:38.383Z,24.60
2022-10-26T19:04:39.221Z,23.47
2022-10-26T19:07:07.505Z,24.53
2022-10-26T19:09:36.838Z,22.17
2022-10-26T19:12:04.984Z,24.80
2022-10-26T19:14:32.912Z,23.23
2022-10-26T19:17:00.859Z,22.73
2022-10-26T19:19:28.790Z,21.70
2022-10-26T19:21:56.765Z,26.80
2022-10-26T19:24:24.943Z,20.97
2022-10-26T19:26:54.277Z,19.37
2022-10-26T19:29:22.282Z,19.87
2022-10-26T19:31:53.520Z,19.10
2022-10-26T19:34:21.691Z,20.57
2022-10-26T19:36:49.778Z,22.50
2022-10-26T19:39:18.812Z,21.17
2022-10-26T19:41:47.434Z,21.73
2022-10-26T19:44:17.386Z,22.40
2022-10-26T19:46:47.588Z,20.57
2022-10-26T19:49:17.445Z,21.33
2022-10-26T19:51:45.425Z,22.07
2022-10-26T19:54:13.389Z,21.10
2022-10-26T19:56:41.316Z,20.40
2022-10-26T19:59:09.298Z,22.37
2022-10-26T20:01:38.897Z,21.23
2022-10-26T20:04:07.331Z,21.43
2022-10-26T20:06:35.547Z,22.13
2022-10-26T20:09:03.861Z,22.90
2022-10-26T20:11:32.337Z,22.43
2022-10-26T20:14:00.556Z,21.73
2022-10-26T20:16:28.567Z,22.97
2022-10-26T20:18:57.918Z,25.07
2022-10-26T20:21:25.892Z,26.07
2022-10-26T20:23:53.909Z,31.67
2022-10-26T20:26:23.389Z,27.67
2022-10-26T20:28:53.219Z,28.67
2022-10-26T20:31:21.120Z,27.47
2022-10-26T20:33:52.036Z,24.83
2022-10-26T20:36:21.798Z,26.97
2022-10-26T20:38:50.455Z,26.07
2022-10-26T20:41:19.044Z,27.57
2022-10-26T20:43:47.747Z,25.23
2022-10-26T20:46:23.268Z,26.67
2022-10-26T20:48:52.240Z,26.70
2022-10-26T20:51:27.079Z,24.53
2022-10-26T20:54:03.493Z,24.53
2022-10-26T20:56:33.040Z,23.43
2022-10-26T20:59:03.387Z,24.07
2022-10-26T21:01:33.357Z,23.37
2022-10-26T21:04:02.977Z,23.20
2022-10-26T21:06:39.787Z,21.87
2022-10-26T21:09:08.727Z,22.00
2022-10-26T21:11:37.206Z,24.93
2022-10-26T21:14:06.360Z,21.47
2022-10-26T21:16:34.514Z,21.03
2022-10-26T21:19:04.924Z,22.37
2022-10-26T21:21:34.281Z,21.13
2022-10-26T21:24:02.947Z,24.17
2022-10-26T21:26:30.873Z,22.40
2022-10-26T21:28:58.789Z,22.43
2022-10-26T21:31:26.782Z,22.70
2022-10-26T21:33:54.718Z,23.93
2022-10-26T21:36:23.099Z,23.20
2022-10-26T21:38:52.408Z,21.20
2022-10-26T21:41:21.942Z,20.00
2022-10-26T21:43:59.229Z,21.53
2022-10-26T21:46:36.986Z,24.47
2022-10-26T21:49:05.288Z,22.73
2022-10-26T21:51:33.266Z,29.23
2022-10-26T21:54:02.664Z,36.47
2022-10-26T21:56:30.608Z,29.90
2022-10-26T21:59:00.106Z,31.80
2022-10-26T22:01:28.268Z,51.23
2022-10-26T22:03:56.276Z,25.57
2022-10-26T22:06:24.477Z,165.00
2022-10-26T22:08:52.468Z,58.30
2022-10-26T22:11:23.413Z,33.10
2022-10-26T22:13:52.076Z,89.67
2022-10-26T22:16:21.649Z,29.90
2022-10-26T22:18:51.214Z,36.63
2022-10-26T22:21:20.758Z,31.00
2022-10-26T22:23:49.168Z,29.70
2022-10-26T22:26:19.608Z,28.83
2022-10-26T22:28:51.918Z,29.17
2022-10-26T22:31:22.001Z,32.37
2022-10-26T22:33:53.742Z,29.97
2022-10-26T22:36:22.369Z,30.73
2022-10-26T22:38:51.063Z,26.40
2022-10-26T22:41:20.142Z,97.60
2022-10-26T22:43:50.723Z,45.37
2022-10-26T22:46:20.741Z,68.87
2022-10-26T22:48:48.971Z,24.40
2022-10-26T22:51:19.698Z,24.47
2022-10-26T22:53:51.792Z,24.20
2022-10-26T22:56:19.746Z,23.90
2022-10-26T22:58:49.130Z,23.37
2022-10-26T23:01:19.646Z,23.13
2022-10-26T23:03:47.942Z,25.23
2022-10-26T23:06:17.558Z,27.20
2022-10-26T23:08:45.875Z,26.77
2022-10-26T23:11:15.813Z,24.20
2022-10-26T23:13:43.795Z,25.77
2022-10-26T23:16:15.033Z,22.67
2022-10-26T23:18:43.317Z,23.23
2022-10-26T23:21:12.454Z,27.77
2022-10-26T23:23:41.045Z,24.87
2022-10-26T23:26:12.042Z,35.20
2022-10-26T23:28:40.846Z,22.77
2022-10-26T23:31:09.889Z,23.50
2022-10-26T23:33:39.169Z,23.37
2022-10-26T23:36:07.567Z,24.27
2022-10-26T23:38:35.479Z,23.27
2022-10-26T23:41:03.472Z,24.60
2022-10-26T23:43:31.401Z,24.63
2022-10-26T23:45:59.397Z,27.00
2022-10-26T23:48:27.320Z,27.97
2022-10-26T23:50:56.883Z,26.27
2022-10-26T23:53:26.174Z,26.10
2022-10-26T23:55:54.464Z,28.83
2022-10-26T23:58:22.435Z,24.93
